<?xml version="1.0" encoding="UTF-8" standalone="no" ?>
<gpx xmlns="http://www.topografix.com/GPX/1/1" xmlns:xsi="http://www.w3.org/2001/XMLSchema-instance" xsi:schemaLocation="http://www.topografix.com/GPX/1/1 http://www.topografix.com/GPX/1/1/gpx.xsd" version="1.1" creator="VisuGPX - https://www.visugpx.com">
  <metadata>
    <name>2025-02-20-46-albas-Le Roc Pounchut</name>
    <desc><![CDATA[randonnée de 9,7 km pour environ 250 m de dénivelé positif une belle montée dans les sous bois avec au passage quelques constructions anciennes avant d'atteindre le plateau et les magnifiques vues sur la vallée au bord de la falaise]]></desc>
  </metadata>
  <trk>
    <name><![CDATA[Le Roc Pounchut]]></name>
    <extensions>
      <line xmlns="http://www.topografix.com/GPX/gpx_style/0/2">
        <color>0000FF</color>
        <width>4</width>
      </line>
    </extensions>
    <trkseg>
      <trkpt lat="44.46836" lon="1.23701">
        <ele>123</ele>
        <time>2025-02-19T17:55:52.000Z</time>
      </trkpt>
      <trkpt lat="44.46833" lon="1.23666">
        <ele>122</ele>
        <time>2025-02-19T17:56:21.000Z</time>
      </trkpt>
      <trkpt lat="44.4695" lon="1.23628">
        <ele>108</ele>
        <time>2025-02-19T17:58:38.000Z</time>
      </trkpt>
      <trkpt lat="44.47002" lon="1.23642">
        <ele>97</ele>
        <time>2025-02-19T17:59:39.000Z</time>
      </trkpt>
      <trkpt lat="44.47133" lon="1.2355">
        <ele>95</ele>
        <time>2025-02-19T18:02:26.000Z</time>
      </trkpt>
      <trkpt lat="44.47163" lon="1.23619">
        <ele>92</ele>
        <time>2025-02-19T18:03:32.000Z</time>
      </trkpt>
      <trkpt lat="44.47193" lon="1.23686">
        <ele>97</ele>
        <time>2025-02-19T18:05:28.000Z</time>
      </trkpt>
      <trkpt lat="44.47212" lon="1.23674">
        <ele>95</ele>
        <time>2025-02-19T18:05:52.000Z</time>
      </trkpt>
      <trkpt lat="44.47268" lon="1.23643">
        <ele>95</ele>
        <time>2025-02-19T18:07:01.000Z</time>
      </trkpt>
      <trkpt lat="44.47338" lon="1.23663">
        <ele>96</ele>
        <time>2025-02-19T18:08:33.000Z</time>
      </trkpt>
      <trkpt lat="44.47439" lon="1.23693">
        <ele>97</ele>
        <time>2025-02-19T18:10:41.000Z</time>
      </trkpt>
      <trkpt lat="44.47479" lon="1.23711">
        <ele>97</ele>
        <time>2025-02-19T18:11:29.000Z</time>
      </trkpt>
      <trkpt lat="44.47518" lon="1.23707">
        <ele>97</ele>
        <time>2025-02-19T18:12:14.000Z</time>
      </trkpt>
      <trkpt lat="44.47543" lon="1.23692">
        <ele>97</ele>
        <time>2025-02-19T18:12:45.000Z</time>
      </trkpt>
      <trkpt lat="44.47604" lon="1.2366">
        <ele>97</ele>
        <time>2025-02-19T18:14:00.000Z</time>
      </trkpt>
      <trkpt lat="44.4766" lon="1.23647">
        <ele>96</ele>
        <time>2025-02-19T18:15:05.000Z</time>
      </trkpt>
      <trkpt lat="44.4774" lon="1.23651">
        <ele>98</ele>
        <time>2025-02-19T18:16:57.000Z</time>
      </trkpt>
      <trkpt lat="44.47801" lon="1.23663">
        <ele>98</ele>
        <time>2025-02-19T18:18:08.000Z</time>
      </trkpt>
      <trkpt lat="44.47837" lon="1.23676">
        <ele>99</ele>
        <time>2025-02-19T18:19:01.000Z</time>
      </trkpt>
      <trkpt lat="44.47873" lon="1.23682">
        <ele>100</ele>
        <time>2025-02-19T18:19:53.000Z</time>
      </trkpt>
      <trkpt lat="44.47899" lon="1.23661">
        <ele>100</ele>
        <time>2025-02-19T18:20:27.000Z</time>
      </trkpt>
      <trkpt lat="44.47927" lon="1.2363">
        <ele>98</ele>
        <time>2025-02-19T18:21:08.000Z</time>
      </trkpt>
      <trkpt lat="44.47953" lon="1.23629">
        <ele>102</ele>
        <time>2025-02-19T18:22:19.000Z</time>
      </trkpt>
      <trkpt lat="44.47995" lon="1.23616">
        <ele>100</ele>
        <time>2025-02-19T18:23:07.000Z</time>
      </trkpt>
      <trkpt lat="44.48044" lon="1.23596">
        <ele>99</ele>
        <time>2025-02-19T18:24:06.000Z</time>
      </trkpt>
      <trkpt lat="44.4808" lon="1.23577">
        <ele>99</ele>
        <time>2025-02-19T18:24:51.000Z</time>
      </trkpt>
      <trkpt lat="44.48127" lon="1.23551">
        <ele>100</ele>
        <time>2025-02-19T18:25:59.000Z</time>
      </trkpt>
      <trkpt lat="44.48184" lon="1.23519">
        <ele>97</ele>
        <time>2025-02-19T18:27:10.000Z</time>
      </trkpt>
      <trkpt lat="44.48242" lon="1.23507">
        <ele>99</ele>
        <time>2025-02-19T18:28:37.000Z</time>
      </trkpt>
      <trkpt lat="44.48319" lon="1.23478">
        <ele>98</ele>
        <time>2025-02-19T18:30:09.000Z</time>
      </trkpt>
      <trkpt lat="44.48407" lon="1.23443">
        <ele>97</ele>
        <time>2025-02-19T18:31:54.000Z</time>
      </trkpt>
      <trkpt lat="44.48465" lon="1.23413">
        <ele>97</ele>
        <time>2025-02-19T18:33:04.000Z</time>
      </trkpt>
      <trkpt lat="44.48558" lon="1.23374">
        <ele>97</ele>
        <time>2025-02-19T18:34:56.000Z</time>
      </trkpt>
      <trkpt lat="44.48616" lon="1.23348">
        <ele>97</ele>
        <time>2025-02-19T18:36:06.000Z</time>
      </trkpt>
      <trkpt lat="44.48675" lon="1.23325">
        <ele>97</ele>
        <time>2025-02-19T18:37:16.000Z</time>
      </trkpt>
      <trkpt lat="44.48752" lon="1.23296">
        <ele>97</ele>
        <time>2025-02-19T18:38:48.000Z</time>
      </trkpt>
      <trkpt lat="44.48804" lon="1.23277">
        <ele>97</ele>
        <time>2025-02-19T18:39:50.000Z</time>
      </trkpt>
      <trkpt lat="44.48856" lon="1.23245">
        <ele>95</ele>
        <time>2025-02-19T18:40:55.000Z</time>
      </trkpt>
      <trkpt lat="44.489" lon="1.23229">
        <ele>97</ele>
        <time>2025-02-19T18:42:07.000Z</time>
      </trkpt>
      <trkpt lat="44.48948" lon="1.23205">
        <ele>96</ele>
        <time>2025-02-19T18:43:05.000Z</time>
      </trkpt>
      <trkpt lat="44.48985" lon="1.23188">
        <ele>97</ele>
        <time>2025-02-19T18:44:00.000Z</time>
      </trkpt>
      <trkpt lat="44.49042" lon="1.23159">
        <ele>97</ele>
        <time>2025-02-19T18:45:10.000Z</time>
      </trkpt>
      <trkpt lat="44.49161" lon="1.23101">
        <ele>97</ele>
        <time>2025-02-19T18:47:34.000Z</time>
      </trkpt>
      <trkpt lat="44.49213" lon="1.23139">
        <ele>104</ele>
        <time>2025-02-19T18:49:53.000Z</time>
      </trkpt>
      <trkpt lat="44.49285" lon="1.23202">
        <ele>116</ele>
        <time>2025-02-19T18:53:34.000Z</time>
      </trkpt>
      <trkpt lat="44.49352" lon="1.23226">
        <ele>123</ele>
        <time>2025-02-19T18:56:06.000Z</time>
      </trkpt>
      <trkpt lat="44.49411" lon="1.23239">
        <ele>131</ele>
        <time>2025-02-19T18:58:36.000Z</time>
      </trkpt>
      <trkpt lat="44.49425" lon="1.23248">
        <ele>136</ele>
        <time>2025-02-19T18:59:46.000Z</time>
      </trkpt>
      <trkpt lat="44.49431" lon="1.23306">
        <ele>141</ele>
        <time>2025-02-19T19:01:25.000Z</time>
      </trkpt>
      <trkpt lat="44.49432" lon="1.23396">
        <ele>150</ele>
        <time>2025-02-19T19:04:11.000Z</time>
      </trkpt>
      <trkpt lat="44.49434" lon="1.23479">
        <ele>155</ele>
        <time>2025-02-19T19:06:10.000Z</time>
      </trkpt>
      <trkpt lat="44.4943" lon="1.23551">
        <ele>164</ele>
        <time>2025-02-19T19:08:41.000Z</time>
      </trkpt>
      <trkpt lat="44.49421" lon="1.2359">
        <ele>171</ele>
        <time>2025-02-19T19:10:27.000Z</time>
      </trkpt>
      <trkpt lat="44.49415" lon="1.23664">
        <ele>178</ele>
        <time>2025-02-19T19:12:40.000Z</time>
      </trkpt>
      <trkpt lat="44.49421" lon="1.23747">
        <ele>185</ele>
        <time>2025-02-19T19:15:00.000Z</time>
      </trkpt>
      <trkpt lat="44.49417" lon="1.23817">
        <ele>188</ele>
        <time>2025-02-19T19:16:28.000Z</time>
      </trkpt>
      <trkpt lat="44.49397" lon="1.23864">
        <ele>190</ele>
        <time>2025-02-19T19:17:33.000Z</time>
      </trkpt>
      <trkpt lat="44.49435" lon="1.2389">
        <ele>193</ele>
        <time>2025-02-19T19:18:53.000Z</time>
      </trkpt>
      <trkpt lat="44.49419" lon="1.23987">
        <ele>187</ele>
        <time>2025-02-19T19:20:15.000Z</time>
      </trkpt>
      <trkpt lat="44.49392" lon="1.24061">
        <ele>169</ele>
        <time>2025-02-19T19:21:23.000Z</time>
      </trkpt>
      <trkpt lat="44.49352" lon="1.24173">
        <ele>170</ele>
        <time>2025-02-19T19:23:21.000Z</time>
      </trkpt>
      <trkpt lat="44.49355" lon="1.24225">
        <ele>171.7</ele>
      </trkpt>
      <trkpt lat="44.49357" lon="1.24298">
        <ele>177.1</ele>
        <time>2025-02-19T19:26:06.000Z</time>
      </trkpt>
      <trkpt lat="44.49426" lon="1.24437">
        <ele>194.9</ele>
        <time>2025-02-19T19:29:52.000Z</time>
      </trkpt>
      <trkpt lat="44.49447" lon="1.24538">
        <ele>204.3</ele>
        <time>2025-02-19T19:31:10.000Z</time>
      </trkpt>
      <trkpt lat="44.49432" lon="1.24648">
        <ele>212.3</ele>
      </trkpt>
      <trkpt lat="44.49445" lon="1.24693">
        <ele>210.9</ele>
      </trkpt>
      <trkpt lat="44.49528" lon="1.24804">
        <ele>214.1</ele>
      </trkpt>
      <trkpt lat="44.4955" lon="1.24873">
        <ele>220.2</ele>
      </trkpt>
      <trkpt lat="44.49559" lon="1.24961">
        <ele>226.1</ele>
      </trkpt>
      <trkpt lat="44.49594" lon="1.25021">
        <ele>231.5</ele>
      </trkpt>
      <trkpt lat="44.49605" lon="1.25079">
        <ele>235.7</ele>
      </trkpt>
      <trkpt lat="44.49569" lon="1.25034">
        <ele>234.8</ele>
      </trkpt>
      <trkpt lat="44.49445" lon="1.25064">
        <ele>228.4</ele>
      </trkpt>
      <trkpt lat="44.49341" lon="1.25055">
        <ele>226.3</ele>
      </trkpt>
      <trkpt lat="44.49291" lon="1.25023">
        <ele>226.4</ele>
      </trkpt>
      <trkpt lat="44.49268" lon="1.2509">
        <ele>227</ele>
      </trkpt>
      <trkpt lat="44.49294" lon="1.25285">
        <ele>238.2</ele>
      </trkpt>
      <trkpt lat="44.49236" lon="1.2533">
        <ele>239.8</ele>
      </trkpt>
      <trkpt lat="44.49196" lon="1.25386">
        <ele>239.9</ele>
      </trkpt>
      <trkpt lat="44.49161" lon="1.25467">
        <ele>237.4</ele>
        <time>2025-02-19T19:36:01.000Z</time>
      </trkpt>
      <trkpt lat="44.49142" lon="1.25364">
        <ele>237.1</ele>
        <time>2025-02-19T19:37:27.000Z</time>
      </trkpt>
      <trkpt lat="44.49084" lon="1.25319">
        <ele>235.9</ele>
        <time>2025-02-19T19:39:26.000Z</time>
      </trkpt>
      <trkpt lat="44.49055" lon="1.25253">
        <ele>238.8</ele>
        <time>2025-02-19T19:42:05.000Z</time>
      </trkpt>
      <trkpt lat="44.49038" lon="1.2521">
        <ele>238.1</ele>
        <time>2025-02-19T19:43:12.000Z</time>
      </trkpt>
      <trkpt lat="44.49023" lon="1.25201">
        <ele>237.8</ele>
      </trkpt>
      <trkpt lat="44.48995" lon="1.2515">
        <ele>237.5</ele>
        <time>2025-02-19T19:43:52.000Z</time>
      </trkpt>
      <trkpt lat="44.48969" lon="1.25096">
        <ele>236.6</ele>
        <time>2025-02-19T19:44:38.000Z</time>
      </trkpt>
      <trkpt lat="44.48943" lon="1.25042">
        <ele>231.7</ele>
        <time>2025-02-19T19:45:38.000Z</time>
      </trkpt>
      <trkpt lat="44.48922" lon="1.25025">
        <ele>227</ele>
      </trkpt>
      <trkpt lat="44.48883" lon="1.24976">
        <ele>219</ele>
        <time>2025-02-19T19:46:30.000Z</time>
      </trkpt>
      <trkpt lat="44.48841" lon="1.24906">
        <ele>218</ele>
        <time>2025-02-19T19:47:45.000Z</time>
      </trkpt>
      <trkpt lat="44.48799" lon="1.24816">
        <ele>231</ele>
        <time>2025-02-19T19:51:27.000Z</time>
      </trkpt>
      <trkpt lat="44.48773" lon="1.24749">
        <ele>237</ele>
        <time>2025-02-19T19:53:31.000Z</time>
      </trkpt>
      <trkpt lat="44.48738" lon="1.24706">
        <ele>236</ele>
        <time>2025-02-19T19:54:24.000Z</time>
      </trkpt>
      <trkpt lat="44.48664" lon="1.24647">
        <ele>232</ele>
        <time>2025-02-19T19:56:02.000Z</time>
      </trkpt>
      <trkpt lat="44.48607" lon="1.24612">
        <ele>226</ele>
        <time>2025-02-19T19:57:12.000Z</time>
      </trkpt>
      <trkpt lat="44.48527" lon="1.24573">
        <ele>203</ele>
        <time>2025-02-19T19:58:49.000Z</time>
      </trkpt>
      <trkpt lat="44.48461" lon="1.24545">
        <ele>184</ele>
        <time>2025-02-19T20:00:08.000Z</time>
      </trkpt>
      <trkpt lat="44.48402" lon="1.24522">
        <ele>188</ele>
        <time>2025-02-19T20:01:59.000Z</time>
      </trkpt>
      <trkpt lat="44.4832" lon="1.24496">
        <ele>178</ele>
        <time>2025-02-19T20:03:35.000Z</time>
      </trkpt>
      <trkpt lat="44.48267" lon="1.24463">
        <ele>185</ele>
        <time>2025-02-19T20:05:53.000Z</time>
      </trkpt>
      <trkpt lat="44.48215" lon="1.24425">
        <ele>184</ele>
        <time>2025-02-19T20:07:00.000Z</time>
      </trkpt>
      <trkpt lat="44.48151" lon="1.24398">
        <ele>180</ele>
        <time>2025-02-19T20:08:18.000Z</time>
      </trkpt>
      <trkpt lat="44.48097" lon="1.24366">
        <ele>174</ele>
        <time>2025-02-19T20:09:25.000Z</time>
      </trkpt>
      <trkpt lat="44.48051" lon="1.24352">
        <ele>170</ele>
        <time>2025-02-19T20:10:19.000Z</time>
      </trkpt>
      <trkpt lat="44.48006" lon="1.24348">
        <ele>162</ele>
        <time>2025-02-19T20:11:10.000Z</time>
      </trkpt>
      <trkpt lat="44.47969" lon="1.24356">
        <ele>152</ele>
        <time>2025-02-19T20:11:53.000Z</time>
      </trkpt>
      <trkpt lat="44.47879" lon="1.24355">
        <ele>136</ele>
        <time>2025-02-19T20:13:36.000Z</time>
      </trkpt>
      <trkpt lat="44.47847" lon="1.24348">
        <ele>135</ele>
        <time>2025-02-19T20:14:13.000Z</time>
      </trkpt>
      <trkpt lat="44.47793" lon="1.24323">
        <ele>136</ele>
        <time>2025-02-19T20:15:27.000Z</time>
      </trkpt>
      <trkpt lat="44.47678" lon="1.24304">
        <ele>137</ele>
        <time>2025-02-19T20:17:50.000Z</time>
      </trkpt>
      <trkpt lat="44.47565" lon="1.24288">
        <ele>134</ele>
        <time>2025-02-19T20:20:00.000Z</time>
      </trkpt>
      <trkpt lat="44.47521" lon="1.24267">
        <ele>132</ele>
        <time>2025-02-19T20:20:53.000Z</time>
      </trkpt>
      <trkpt lat="44.47445" lon="1.24222">
        <ele>131</ele>
        <time>2025-02-19T20:22:28.000Z</time>
      </trkpt>
      <trkpt lat="44.47325" lon="1.24127">
        <ele>122</ele>
        <time>2025-02-19T20:25:05.000Z</time>
      </trkpt>
      <trkpt lat="44.47253" lon="1.2406">
        <ele>113</ele>
        <time>2025-02-19T20:26:44.000Z</time>
      </trkpt>
      <trkpt lat="44.47155" lon="1.23958">
        <ele>104</ele>
        <time>2025-02-19T20:29:05.000Z</time>
      </trkpt>
      <trkpt lat="44.47085" lon="1.23882">
        <ele>98</ele>
        <time>2025-02-19T20:30:46.000Z</time>
      </trkpt>
      <trkpt lat="44.47045" lon="1.23803">
        <ele>93</ele>
        <time>2025-02-19T20:32:05.000Z</time>
      </trkpt>
      <trkpt lat="44.47132" lon="1.23741">
        <ele>94</ele>
        <time>2025-02-19T20:34:07.000Z</time>
      </trkpt>
      <trkpt lat="44.47193" lon="1.23687">
        <ele>97</ele>
        <time>2025-02-19T20:36:01.000Z</time>
      </trkpt>
      <trkpt lat="44.47133" lon="1.23547">
        <ele>95</ele>
        <time>2025-02-19T20:38:14.000Z</time>
      </trkpt>
      <trkpt lat="44.47003" lon="1.23641">
        <ele>98</ele>
        <time>2025-02-19T20:41:32.000Z</time>
      </trkpt>
      <trkpt lat="44.46951" lon="1.23628">
        <ele>107</ele>
        <time>2025-02-19T20:44:05.000Z</time>
      </trkpt>
      <trkpt lat="44.46874" lon="1.23655">
        <ele>118</ele>
        <time>2025-02-19T20:47:30.000Z</time>
      </trkpt>
      <trkpt lat="44.4685" lon="1.23662">
        <ele>120</ele>
        <time>2025-02-19T20:48:18.000Z</time>
      </trkpt>
      <trkpt lat="44.46832" lon="1.23665">
        <ele>122</ele>
        <time>2025-02-19T20:48:59.000Z</time>
      </trkpt>
      <trkpt lat="44.46835" lon="1.237">
        <ele>123</ele>
        <time>2025-02-19T20:49:38.000Z</time>
      </trkpt>
    </trkseg>
  </trk>
</gpx>